Time;durP1;ratioP1;P1;durP2;ratioP2;P2;SDS_P1;SDS_P2;PMS_P1;PMS_P2;Temp;Humidity;BMP_temperature;BMP_pressure;BME280_temperature;BME280_humidity;BME280_pressure;Samples;Min_cycle;Max_cycle;Signal;HPM_P1;HPM_P2
2022/04/24 00:01:32;;;;;;;4.22;3.00;;;15.40;55.50;;;;;;5075004;28;20017;-76
2022/04/24 00:03:58;;;;;;;3.38;3.08;;;15.40;55.50;;;;;;5075333;28;20036;-76
2022/04/24 00:06:24;;;;;;;7.75;3.10;;;15.20;55.80;;;;;;5074606;28;20044;-75
2022/04/24 00:08:49;;;;;;;4.97;3.42;;;15.10;56.60;;;;;;5075234;28;20051;-76
2022/04/24 00:11:16;;;;;;;5.43;3.60;;;14.80;57.00;;;;;;5074769;28;20504;-76
2022/04/24 00:13:42;;;;;;;3.45;3.15;;;14.80;57.30;;;;;;5074954;28;20048;-75
2022/04/24 00:16:09;;;;;;;3.53;3.22;;;14.90;57.30;;;;;;5074742;28;20487;-76
2022/04/24 00:18:37;;;;;;;5.43;3.70;;;15.00;57.30;;;;;;5074665;28;20080;-76
2022/04/24 00:21:04;;;;;;;3.58;3.28;;;15.00;57.40;;;;;;5074566;28;20128;-76
2022/04/24 00:23:31;;;;;;;3.92;3.55;;;14.90;57.70;;;;;;5074647;28;20108;-75
2022/04/24 00:25:57;;;;;;;4.47;3.65;;;14.90;57.50;;;;;;5074553;28;20379;-75
2022/04/24 00:28:22;;;;;;;5.55;3.67;;;14.90;57.70;;;;;;5074442;28;20023;-76
2022/04/24 00:30:48;;;;;;;7.95;4.22;;;14.70;57.90;;;;;;5074841;28;20016;-76
2022/04/24 00:33:14;;;;;;;4.50;4.10;;;14.60;58.10;;;;;;5074754;28;20030;-76
2022/04/24 00:35:39;;;;;;;4.53;3.53;;;14.50;58.20;;;;;;5074042;28;20472;-75
2022/04/24 00:38:05;;;;;;;4.32;3.90;;;14.40;58.80;;;;;;5074757;28;20046;-76
2022/04/24 00:40:31;;;;;;;5.18;3.83;;;14.40;58.70;;;;;;5074391;28;20040;-76
2022/04/24 00:42:56;;;;;;;4.68;4.28;;;14.20;59.20;;;;;;5074382;28;20021;-76
2022/04/24 00:45:22;;;;;;;7.72;3.90;;;14.00;60.40;;;;;;5074332;28;20028;-75
2022/04/24 00:47:48;;;;;;;5.68;3.42;;;14.00;60.20;;;;;;5074015;28;20468;-76
2022/04/24 00:50:14;;;;;;;4.60;4.20;;;14.00;60.00;;;;;;5074051;28;20431;-76
2022/04/24 00:52:40;;;;;;;6.47;4.43;;;14.00;60.10;;;;;;5074297;28;20025;-76
2022/04/24 00:55:07;;;;;;;6.20;4.57;;;14.00;60.10;;;;;;5074342;28;20043;-76
2022/04/24 00:57:33;;;;;;;5.05;4.50;;;13.90;60.50;;;;;;5073949;28;20079;-76
2022/04/24 00:59:59;;;;;;;5.20;4.70;;;13.60;61.40;;;;;;5074204;28;20067;-76
2022/04/24 01:02:24;;;;;;;5.20;4.70;;;13.50;61.90;;;;;;5073861;28;20044;-77
2022/04/24 01:04:50;;;;;;;7.13;5.43;;;13.40;62.30;;;;;;5073378;28;20036;-76
2022/04/24 01:07:16;;;;;;;6.60;5.32;;;13.40;62.60;;;;;;5073760;28;20035;-77
2022/04/24 01:09:41;;;;;;;5.10;4.13;;;13.40;62.80;;;;;;5073758;28;20045;-76
2022/04/24 01:12:08;;;;;;;7.18;5.50;;;13.40;62.90;;;;;;5073716;28;20120;-76
2022/04/24 01:14:35;;;;;;;7.78;5.28;;;13.50;63.00;;;;;;5073779;28;20021;-76
2022/04/24 01:17:03;;;;;;;5.15;4.65;;;13.50;63.40;;;;;;5073450;28;20024;-76
2022/04/24 01:19:29;;;;;;;8.20;5.07;;;13.50;63.20;;;;;;5073402;28;20033;-76
2022/04/24 01:21:56;;;;;;;6.38;4.95;;;13.60;63.10;;;;;;5073510;28;20025;-76
2022/04/24 01:24:28;;;;;;;7.68;5.45;;;13.70;62.90;;;;;;5073550;28;20025;-76
2022/04/24 01:26:53;;;;;;;6.43;5.70;;;13.80;62.90;;;;;;5073406;28;20111;-76
2022/04/24 01:29:19;;;;;;;6.68;5.35;;;13.60;63.30;;;;;;5073771;28;20119;-76
2022/04/24 01:31:47;;;;;;;7.57;5.75;;;13.50;63.90;;;;;;5073394;28;20071;-76
2022/04/24 01:34:13;;;;;;;6.40;5.80;;;13.50;64.10;;;;;;5073361;28;20498;-76
2022/04/24 01:36:38;;;;;;;5.50;4.57;;;13.40;64.60;;;;;;5073352;28;20024;-77
2022/04/24 01:39:04;;;;;;;7.55;6.03;;;13.30;64.80;;;;;;5073434;28;20089;-77
2022/04/24 01:41:31;;;;;;;9.55;5.60;;;13.40;64.80;;;;;;5073649;28;20027;-77
2022/04/24 01:43:57;;;;;;;6.40;5.80;;;13.40;64.90;;;;;;5073513;28;20349;-76
2022/04/24 01:46:23;;;;;;;6.53;5.75;;;13.30;65.20;;;;;;5073089;28;20028;-77
2022/04/24 01:48:48;;;;;;;5.75;5.15;;;13.30;66.10;;;;;;5073479;28;20786;-76
2022/04/24 01:51:14;;;;;;;6.30;5.70;;;13.30;65.80;;;;;;5073183;28;20376;-77
2022/04/24 01:53:41;;;;;;;8.95;6.00;;;13.20;66.10;;;;;;5073505;28;20029;-76
2022/04/24 01:56:07;;;;;;;8.95;6.68;;;13.00;67.00;;;;;;5072959;28;20029;-77
2022/04/24 01:58:34;;;;;;;6.28;5.65;;;13.00;67.20;;;;;;5073118;28;20027;-76
2022/04/24 02:00:59;;;;;;;7.55;5.70;;;13.00;67.40;;;;;;5072980;28;20029;-76
2022/04/24 02:03:27;;;;;;;10.23;6.47;;;13.00;67.70;;;;;;5073330;28;20047;-76
2022/04/24 02:05:53;;;;;;;7.93;6.28;;;12.80;68.30;;;;;;5073132;28;20029;-76
2022/04/24 02:08:19;;;;;;;8.52;6.38;;;12.80;68.60;;;;;;5073225;28;20025;-76
2022/04/24 02:10:44;;;;;;;7.65;6.68;;;12.80;68.90;;;;;;5072857;28;20044;-77
2022/04/24 02:13:10;;;;;;;8.55;6.65;;;12.80;69.00;;;;;;5072924;28;20482;-77
2022/04/24 02:15:35;;;;;;;6.95;6.10;;;12.70;69.30;;;;;;5072898;28;20020;-76
2022/04/24 02:18:02;;;;;;;8.90;6.90;;;12.70;69.60;;;;;;5075800;28;20031;-76
2022/04/24 02:20:30;;;;;;;9.13;6.55;;;12.70;69.80;;;;;;5076880;28;20067;-76
2022/04/24 02:22:57;;;;;;;7.32;6.30;;;12.60;70.70;;;;;;5076971;28;20020;-76
2022/04/24 02:25:27;;;;;;;8.10;6.70;;;12.60;70.10;;;;;;5077031;28;20096;-77
2022/04/24 02:27:54;;;;;;;6.80;6.10;;;12.70;70.10;;;;;;5077067;28;20020;-77
2022/04/24 02:30:24;;;;;;;12.02;7.57;;;12.70;70.10;;;;;;5076794;28;20029;-77
2022/04/24 02:32:50;;;;;;;13.60;6.78;;;12.70;70.50;;;;;;5076841;28;20034;-77
2022/04/24 02:35:16;;;;;;;16.20;6.88;;;12.50;70.70;;;;;;5077027;28;20095;-77
2022/04/24 02:37:43;;;;;;;7.80;6.15;;;12.50;71.00;;;;;;5076913;28;20431;-76
2022/04/24 02:40:10;;;;;;;7.70;6.13;;;12.60;70.70;;;;;;5076417;28;20047;-77
2022/04/24 02:42:38;;;;;;;10.77;6.95;;;12.70;70.40;;;;;;5076833;28;20048;-77
2022/04/24 02:45:08;;;;;;;8.25;6.20;;;12.70;70.50;;;;;;5076906;28;20107;-76
2022/04/24 02:47:34;;;;;;;11.43;7.07;;;12.70;70.60;;;;;;5076767;28;20024;-77
2022/04/24 02:50:00;;;;;;;9.07;6.25;;;12.70;70.50;;;;;;5076580;28;20033;-76
2022/04/24 02:52:25;;;;;;;6.72;5.53;;;12.50;71.00;;;;;;5076472;28;20407;-76
2022/04/24 02:54:51;;;;;;;7.70;6.10;;;12.50;71.80;;;;;;5076343;28;20070;-76
2022/04/24 02:57:17;;;;;;;9.23;6.40;;;12.70;71.00;;;;;;5076166;28;20078;-76
2022/04/24 02:59:42;;;;;;;9.20;6.28;;;12.50;71.20;;;;;;5076139;28;20078;-76
2022/04/24 03:02:09;;;;;;;10.05;5.97;;;12.60;71.40;;;;;;5076445;28;20025;-76
2022/04/24 03:04:35;;;;;;;7.75;5.85;;;12.60;71.30;;;;;;5076316;28;20032;-76
2022/04/24 03:07:01;;;;;;;8.68;6.32;;;12.60;71.20;;;;;;5076177;28;20025;-76
2022/04/24 03:09:26;;;;;;;8.63;6.45;;;12.50;71.30;;;;;;5075742;28;20503;-76
2022/04/24 03:11:52;;;;;;;7.45;6.45;;;12.40;71.70;;;;;;5074695;28;20361;-76
2022/04/24 03:14:18;;;;;;;8.10;6.35;;;12.40;71.90;;;;;;5074818;28;20035;-76
2022/04/24 03:16:43;;;;;;;8.05;5.82;;;12.30;72.20;;;;;;5074743;28;20021;-77
2022/04/24 03:19:09;;;;;;;7.50;6.00;;;12.30;72.20;;;;;;5074905;28;20104;-76
2022/04/24 03:21:35;;;;;;;8.70;6.00;;;12.40;72.20;;;;;;5074735;28;20028;-76
2022/04/24 03:24:00;;;;;;;6.93;5.07;;;12.30;72.20;;;;;;5074615;28;20094;-76
2022/04/24 03:26:26;;;;;;;6.80;5.72;;;12.20;72.30;;;;;;5074657;28;20020;-76
2022/04/24 03:28:52;;;;;;;8.35;6.60;;;12.30;72.40;;;;;;5074376;28;20048;-76
2022/04/24 03:31:17;;;;;;;6.75;5.70;;;12.30;72.50;;;;;;5074532;28;20078;-76
2022/04/24 03:33:43;;;;;;;5.70;5.00;;;12.10;72.60;;;;;;5074541;28;20064;-76
2022/04/24 03:36:09;;;;;;;6.05;5.28;;;12.10;72.80;;;;;;5074374;28;20050;-76
2022/04/24 03:38:34;;;;;;;6.10;5.50;;;12.00;72.80;;;;;;5074718;28;20100;-76
2022/04/24 03:41:00;;;;;;;5.80;5.10;;;11.90;73.00;;;;;;5074462;28;20539;-76
2022/04/24 03:43:25;;;;;;;9.23;5.05;;;11.90;73.20;;;;;;5074565;28;20020;-76
2022/04/24 03:45:51;;;;;;;9.02;6.13;;;12.00;73.10;;;;;;5074143;28;20070;-77
2022/04/24 03:48:17;;;;;;;6.15;5.28;;;12.00;73.20;;;;;;5074262;28;20024;-76
2022/04/24 03:50:42;;;;;;;6.18;5.47;;;12.00;73.10;;;;;;5074291;28;20032;-76
2022/04/24 03:53:09;;;;;;;6.47;5.07;;;12.10;72.60;;;;;;5074186;28;20086;-76
2022/04/24 03:55:34;;;;;;;7.07;5.53;;;12.10;72.60;;;;;;5074138;28;20020;-76
2022/04/24 03:58:00;;;;;;;7.00;5.40;;;12.10;72.70;;;;;;5074105;28;20042;-76
2022/04/24 04:00:26;;;;;;;6.38;5.18;;;12.10;72.70;;;;;;5074050;28;20039;-76
2022/04/24 04:02:52;;;;;;;9.55;5.18;;;11.90;73.10;;;;;;5074081;28;20444;-76
2022/04/24 04:05:17;;;;;;;8.05;5.82;;;12.00;73.10;;;;;;5074286;28;20028;-76
2022/04/24 04:07:44;;;;;;;6.88;5.50;;;11.90;73.40;;;;;;5074003;28;20353;-76
2022/04/24 04:10:10;;;;;;;8.43;5.72;;;11.90;73.40;;;;;;5068875;28;132036;-76
2022/04/24 04:12:36;;;;;;;8.43;5.68;;;11.90;73.60;;;;;;5074683;28;20032;-76
2022/04/24 04:15:05;;;;;;;7.32;5.10;;;11.70;73.70;;;;;;5074791;28;20433;-76
2022/04/24 04:17:32;;;;;;;8.15;5.40;;;11.70;74.20;;;;;;5074744;28;20035;-76
2022/04/24 04:19:58;;;;;;;4.97;4.07;;;11.70;74.00;;;;;;5074730;28;20028;-76
2022/04/24 04:22:24;;;;;;;6.43;5.32;;;11.80;74.10;;;;;;5075009;28;20028;-76
2022/04/24 04:24:50;;;;;;;7.75;5.38;;;11.80;73.90;;;;;;5074354;28;20033;-76
2022/04/24 04:27:16;;;;;;;6.25;4.90;;;11.60;74.40;;;;;;5074885;28;20025;-76
2022/04/24 04:29:42;;;;;;;6.70;4.97;;;11.60;74.70;;;;;;5074655;28;20032;-76
2022/04/24 04:32:08;;;;;;;5.78;5.15;;;11.60;74.60;;;;;;5074885;28;20020;-76
2022/04/24 04:34:33;;;;;;;6.85;4.70;;;11.70;74.50;;;;;;5074353;28;20024;-76
2022/04/24 04:36:59;;;;;;;8.13;4.78;;;11.70;74.40;;;;;;5074246;28;20036;-76
2022/04/24 04:39:24;;;;;;;8.88;5.03;;;11.90;74.10;;;;;;5073635;28;20029;-76
2022/04/24 04:41:50;;;;;;;5.38;4.88;;;12.10;73.40;;;;;;5074464;28;20051;-76
2022/04/24 04:44:15;;;;;;;5.75;5.07;;;12.00;73.10;;;;;;5074270;28;20021;-76
2022/04/24 04:46:41;;;;;;;6.28;4.40;;;11.80;73.30;;;;;;5074127;28;20024;-76
2022/04/24 04:49:06;;;;;;;6.15;4.55;;;11.60;74.00;;;;;;5073898;28;20021;-76
2022/04/24 04:51:32;;;;;;;7.32;4.47;;;11.60;74.40;;;;;;5074112;28;20070;-76
2022/04/24 04:53:58;;;;;;;5.32;4.80;;;11.50;74.50;;;;;;5074063;28;20024;-76
2022/04/24 04:56:23;;;;;;;5.35;4.82;;;11.60;74.60;;;;;;5074232;28;20108;-76
2022/04/24 04:58:49;;;;;;;7.80;4.78;;;11.60;74.50;;;;;;5073979;28;20028;-76
2022/04/24 05:01:15;;;;;;;7.05;4.80;;;11.60;74.60;;;;;;5073898;28;20050;-76
2022/04/24 05:03:41;;;;;;;7.05;5.28;;;11.40;74.60;;;;;;5073925;28;20027;-76
2022/04/24 05:06:06;;;;;;;5.30;4.78;;;11.50;74.70;;;;;;5074104;28;20028;-76
2022/04/24 05:08:33;;;;;;;7.32;4.75;;;11.40;74.90;;;;;;5074062;28;20487;-76
2022/04/24 05:10:59;;;;;;;5.90;4.35;;;11.40;75.20;;;;;;5073447;28;20048;-76
2022/04/24 05:13:25;;;;;;;10.52;5.15;;;11.40;75.10;;;;;;5073732;28;20024;-76
2022/04/24 05:15:50;;;;;;;4.40;3.97;;;11.20;75.30;;;;;;5073663;28;20147;-76
2022/04/24 05:18:16;;;;;;;5.97;4.45;;;11.30;75.80;;;;;;5073518;28;20031;-76
2022/04/24 05:20:43;;;;;;;8.35;4.90;;;11.20;75.10;;;;;;5073481;28;20036;-76
2022/04/24 05:23:08;;;;;;;7.05;4.25;;;11.20;75.40;;;;;;5073524;28;20109;-76
2022/04/24 05:25:35;;;;;;;6.60;4.72;;;11.20;75.40;;;;;;5073788;28;20052;-76
2022/04/24 05:28:01;;;;;;;7.88;4.63;;;11.30;75.60;;;;;;5073440;28;20021;-77
2022/04/24 05:30:28;;;;;;;5.60;4.43;;;11.20;75.30;;;;;;5073787;28;20029;-76
2022/04/24 05:32:54;;;;;;;5.15;4.60;;;11.30;75.50;;;;;;5073433;28;20031;-76
2022/04/24 05:35:19;;;;;;;8.63;4.97;;;11.20;75.20;;;;;;5073382;28;20028;-76
2022/04/24 05:37:46;;;;;;;7.78;4.70;;;11.00;75.70;;;;;;5073344;28;20052;-76
2022/04/24 05:40:12;;;;;;;6.25;4.55;;;11.00;76.00;;;;;;5073273;28;20116;-76
2022/04/24 05:42:45;;;;;;;6.00;4.25;;;11.20;75.90;;;;;;5073568;28;20020;-76
2022/04/24 05:45:14;;;;;;;6.53;4.78;;;11.20;75.70;;;;;;5073268;28;20020;-76
2022/04/24 05:47:41;;;;;;;7.47;4.78;;;11.20;75.60;;;;;;5073356;28;20039;-77
2022/04/24 05:50:07;;;;;;;7.80;4.70;;;11.20;75.70;;;;;;5073428;28;20039;-76
2022/04/24 05:52:32;;;;;;;5.15;4.22;;;11.20;75.20;;;;;;5073376;28;20016;-76
2022/04/24 05:54:58;;;;;;;4.60;3.70;;;11.10;75.50;;;;;;5072795;28;20103;-76
2022/04/24 05:57:23;;;;;;;6.28;3.92;;;11.20;75.50;;;;;;5073143;28;20024;-76
2022/04/24 05:59:49;;;;;;;5.53;4.18;;;11.40;75.10;;;;;;5073231;28;20043;-76
2022/04/24 06:02:14;;;;;;;5.68;4.40;;;11.40;74.90;;;;;;5073353;28;20020;-76
2022/04/24 06:04:40;;;;;;;7.10;4.45;;;11.50;74.90;;;;;;5072814;28;20021;-76
2022/04/24 06:07:05;;;;;;;6.70;4.35;;;11.50;74.60;;;;;;5073274;28;20048;-76
2022/04/24 06:09:31;;;;;;;4.68;3.60;;;11.60;74.30;;;;;;5073070;28;20090;-76
2022/04/24 06:12:00;;;;;;;5.25;4.25;;;11.80;73.80;;;;;;5073022;28;20088;-76
2022/04/24 06:14:26;;;;;;;5.22;3.92;;;11.80;73.50;;;;;;5073112;28;20435;-76
2022/04/24 06:16:52;;;;;;;7.40;4.65;;;11.70;73.70;;;;;;5073069;28;20037;-76
2022/04/24 06:19:17;;;;;;;7.82;4.20;;;11.70;73.70;;;;;;5073071;28;20035;-76
2022/04/24 06:21:43;;;;;;;6.80;4.65;;;11.60;74.00;;;;;;5073167;28;20067;-77
2022/04/24 06:24:08;;;;;;;5.03;4.20;;;11.60;74.50;;;;;;5072627;28;20019;-76
2022/04/24 06:26:34;;;;;;;5.75;4.45;;;11.80;74.20;;;;;;5073178;28;20032;-76
2022/04/24 06:28:59;;;;;;;4.60;3.72;;;11.80;73.70;;;;;;5073082;28;20036;-76
2022/04/24 06:31:25;;;;;;;5.20;3.78;;;12.00;73.30;;;;;;5072957;28;20046;-76
2022/04/24 06:33:51;;;;;;;6.43;4.20;;;12.10;72.30;;;;;;5072758;28;20174;-76
2022/04/24 06:36:16;;;;;;;8.00;4.20;;;12.10;72.00;;;;;;5073137;28;20024;-76
2022/04/24 06:38:42;;;;;;;6.43;4.20;;;12.20;72.60;;;;;;5072767;28;20540;-76
2022/04/24 06:41:07;;;;;;;4.35;3.60;;;12.30;72.10;;;;;;5073050;28;20029;-76
2022/04/24 06:43:33;;;;;;;6.30;4.05;;;12.30;72.60;;;;;;5072789;28;20016;-77
2022/04/24 06:45:58;;;;;;;5.18;3.72;;;12.30;71.80;;;;;;5072932;28;20028;-76
2022/04/24 06:48:24;;;;;;;4.57;3.40;;;12.40;71.80;;;;;;5072679;28;20119;-76
2022/04/24 06:50:49;;;;;;;5.28;4.10;;;12.60;72.00;;;;;;5072548;28;20021;-76
2022/04/24 06:53:18;;;;;;;6.30;4.30;;;12.80;71.10;;;;;;5072347;28;20020;-76
2022/04/24 06:55:45;;;;;;;8.60;4.15;;;12.80;70.90;;;;;;5072746;28;20028;-77
2022/04/24 06:58:13;;;;;;;4.90;3.90;;;12.80;69.90;;;;;;5072832;28;20031;-76
2022/04/24 07:00:42;;;;;;;4.07;3.40;;;12.70;70.50;;;;;;5072614;28;20082;-76
2022/04/24 07:03:10;;;;;;;4.05;3.33;;;12.90;71.10;;;;;;5073746;28;20021;-76
2022/04/24 07:05:35;;;;;;;5.15;3.88;;;13.00;70.10;;;;;;5076180;28;20460;-76
2022/04/24 07:08:01;;;;;;;5.38;3.85;;;13.10;70.10;;;;;;5076387;28;20084;-77
2022/04/24 07:10:26;;;;;;;5.93;3.92;;;13.00;69.70;;;;;;5075931;28;20404;-77
2022/04/24 07:12:53;;;;;;;5.65;3.97;;;13.10;70.30;;;;;;5076054;28;20060;-77
2022/04/24 07:15:20;;;;;;;4.72;4.22;;;13.20;70.00;;;;;;5076151;28;20036;-77
2022/04/24 07:17:47;;;;;;;5.00;4.07;;;13.40;69.30;;;;;;5076230;28;20134;-77
2022/04/24 07:20:14;;;;;;;6.43;3.92;;;13.50;68.50;;;;;;5076173;28;20032;-76
2022/04/24 07:22:47;;;;;;;7.88;4.50;;;13.60;68.30;;;;;;5075866;28;20024;-76
2022/04/24 07:25:17;;;;;;;7.82;3.85;;;13.60;68.20;;;;;;5075734;28;20479;-76
2022/04/24 07:27:43;;;;;;;7.18;3.70;;;13.60;67.50;;;;;;5075694;28;20074;-76
2022/04/24 07:30:13;;;;;;;4.95;3.83;;;13.70;67.90;;;;;;5075699;28;20025;-77
2022/04/24 07:32:49;;;;;;;5.22;4.10;;;13.70;67.70;;;;;;5075715;28;20028;-77
2022/04/24 07:35:17;;;;;;;4.05;3.47;;;13.60;67.50;;;;;;5075985;28;20040;-76
2022/04/24 07:37:43;;;;;;;5.15;4.15;;;13.60;67.90;;;;;;5075758;28;20111;-76
2022/04/24 07:40:11;;;;;;;4.40;3.55;;;13.80;68.20;;;;;;5075834;28;20101;-76
2022/04/24 07:43:04;;;;;;;5.55;4.18;;;13.90;67.60;;;;;;5075462;28;20021;-77
2022/04/24 07:45:31;;;;;;;6.93;4.30;;;14.00;67.30;;;;;;5073770;28;20090;-77
2022/04/24 07:47:58;;;;;;;4.90;4.28;;;13.90;67.40;;;;;;5075577;28;20028;-76
2022/04/24 07:50:26;;;;;;;7.70;3.72;;;14.00;68.60;;;;;;5075404;28;20024;-76
2022/04/24 07:52:52;;;;;;;3.97;3.58;;;14.20;67.90;;;;;;5075250;28;20099;-76
2022/04/24 07:55:21;;;;;;;4.10;3.70;;;14.30;67.00;;;;;;5075591;28;20020;-76
2022/04/24 07:57:48;;;;;;;4.88;3.92;;;14.50;67.30;;;;;;5075208;28;20078;-77
2022/04/24 08:00:15;;;;;;;4.97;4.05;;;14.70;65.70;;;;;;5075021;28;20127;-77
2022/04/24 08:02:57;;;;;;;4.40;3.33;;;14.80;65.70;;;;;;5074862;28;20032;-77
2022/04/24 08:05:28;;;;;;;6.67;3.63;;;15.00;65.30;;;;;;5075340;28;20082;-76
2022/04/24 08:07:56;;;;;;;5.45;3.63;;;15.00;64.70;;;;;;5075209;28;20312;-76
2022/04/24 08:10:23;;;;;;;6.28;3.95;;;15.00;64.70;;;;;;5074996;28;20089;-76
2022/04/24 08:12:49;;;;;;;4.55;4.07;;;15.00;65.00;;;;;;5074098;28;20029;-79
2022/04/24 08:15:15;;;;;;;5.55;3.63;;;15.20;64.20;;;;;;5073983;28;20024;-80
2022/04/24 08:17:41;;;;;;;4.20;3.75;;;15.20;64.90;;;;;;5074844;28;20093;-79
2022/04/24 08:20:09;;;;;;;4.85;3.75;;;15.30;63.50;;;;;;5074975;28;20036;-76
2022/04/24 08:22:45;;;;;;;4.60;3.90;;;15.50;63.40;;;;;;5074141;28;20028;-79
2022/04/24 08:25:13;;;;;;;7.68;4.22;;;15.70;64.10;;;;;;5074731;28;20032;-76
2022/04/24 08:27:39;;;;;;;6.38;4.47;;;15.90;62.60;;;;;;5074779;28;20025;-77
2022/04/24 08:30:07;;;;;;;8.73;4.60;;;15.90;61.80;;;;;;5074746;28;20481;-80
2022/04/24 08:32:34;;;;;;;8.18;3.97;;;15.90;62.30;;;;;;5074527;28;20031;-77
2022/04/24 08:35:00;;;;;;;5.75;3.90;;;15.90;61.70;;;;;;5074510;28;20024;-77
2022/04/24 08:37:26;;;;;;;5.57;4.15;;;15.90;62.00;;;;;;5074683;28;20024;-78
2022/04/24 08:39:53;;;;;;;4.93;4.38;;;16.10;62.00;;;;;;5074567;28;20093;-77
2022/04/24 08:42:21;;;;;;;6.05;4.15;;;16.10;60.90;;;;;;5074381;28;20550;-76
2022/04/24 08:44:56;;;;;;;7.10;4.47;;;16.10;61.90;;;;;;5074327;28;20078;-76
2022/04/24 08:47:24;;;;;;;4.70;4.10;;;16.30;62.00;;;;;;5074259;28;20020;-76
2022/04/24 08:49:54;;;;;;;4.75;3.70;;;16.50;62.00;;;;;;5074398;28;20383;-77
2022/04/24 08:52:21;;;;;;;5.90;3.80;;;16.70;62.00;;;;;;5074333;28;20383;-78
2022/04/24 08:54:47;;;;;;;7.68;3.75;;;16.90;61.20;;;;;;5073952;28;20025;-77
2022/04/24 08:57:13;;;;;;;5.45;3.72;;;16.90;59.70;;;;;;5074175;28;20025;-77
2022/04/24 08:59:39;;;;;;;5.55;4.40;;;16.80;60.60;;;;;;5073574;28;20101;-75
2022/04/24 09:02:06;;;;;;;7.63;4.85;;;16.90;59.90;;;;;;5074124;28;20096;-75
2022/04/24 09:04:36;;;;;;;5.65;4.43;;;16.90;59.60;;;;;;5073611;28;20028;-75
2022/04/24 09:07:07;;;;;;;6.32;4.30;;;16.80;59.60;;;;;;5073861;28;20060;-76
2022/04/24 09:09:42;;;;;;;6.75;4.28;;;16.90;60.80;;;;;;5073773;28;20089;-76
2022/04/24 09:12:21;;;;;;;5.78;3.78;;;17.00;60.40;;;;;;5073778;28;20025;-76
2022/04/24 09:14:48;;;;;;;8.32;4.70;;;17.00;60.60;;;;;;5073774;28;20100;-76
2022/04/24 09:17:17;;;;;;;4.70;3.95;;;17.30;60.40;;;;;;5073827;28;20028;-75
2022/04/24 09:19:43;;;;;;;4.97;3.80;;;17.40;59.20;;;;;;5073880;28;20154;-76
2022/04/24 09:22:10;;;;;;;5.97;4.00;;;17.50;59.80;;;;;;5073895;28;20028;-76
2022/04/24 09:24:42;;;;;;;7.03;4.03;;;17.50;58.90;;;;;;5073396;28;20126;-76
2022/04/24 09:27:09;;;;;;;7.25;4.60;;;17.50;58.00;;;;;;5073432;28;20043;-76
2022/04/24 09:29:36;;;;;;;6.72;4.60;;;17.40;57.50;;;;;;5073651;28;20066;-76
2022/04/24 09:32:09;;;;;;;7.10;4.72;;;17.40;58.70;;;;;;5073350;28;20099;-81
2022/04/24 09:34:36;;;;;;;4.43;4.00;;;17.40;58.40;;;;;;5073326;28;20028;-81
2022/04/24 09:37:09;;;;;;;5.40;4.20;;;17.50;59.00;;;;;;5073233;28;20137;-81
2022/04/24 09:39:37;;;;;;;5.28;3.78;;;17.70;58.80;;;;;;5073521;28;20024;-81
2022/04/24 09:42:07;;;;;;;10.70;4.28;;;17.90;58.50;;;;;;5073394;28;20120;-75
2022/04/24 09:44:59;;;;;;;5.70;4.25;;;17.90;57.10;;;;;;5073089;28;20021;-75
2022/04/24 09:47:26;;;;;;;6.05;4.45;;;18.00;57.00;;;;;;5070634;28;20383;-75
2022/04/24 09:49:52;;;;;;;12.65;4.68;;;18.00;57.30;;;;;;5073086;28;20024;-75
2022/04/24 09:52:23;;;;;;;6.22;4.32;;;18.10;56.50;;;;;;5072719;28;20503;-75
2022/04/24 09:54:51;;;;;;;6.68;4.38;;;18.10;55.80;;;;;;5073238;28;20554;-75
2022/04/24 09:57:18;;;;;;;4.88;4.38;;;18.00;55.70;;;;;;5072796;28;20067;-75
2022/04/24 09:59:46;;;;;;;6.35;4.47;;;18.10;56.40;;;;;;5072993;28;20037;-75
2022/04/24 10:02:14;;;;;;;9.98;4.60;;;18.10;56.60;;;;;;5073042;28;20440;-75
2022/04/24 10:04:40;;;;;;;7.13;3.50;;;18.10;56.00;;;;;;5073416;28;20127;-75
2022/04/24 10:07:08;;;;;;;6.80;3.92;;;18.20;56.90;;;;;;5073374;28;20119;-75
2022/04/24 10:09:39;;;;;;;8.43;4.15;;;18.40;56.30;;;;;;5072981;28;20048;-75
2022/04/24 10:12:20;;;;;;;4.65;3.55;;;18.50;55.30;;;;;;5073003;28;20077;-75
2022/04/24 10:15:00;;;;;;;5.72;3.83;;;18.50;55.90;;;;;;5073196;28;20103;-75
2022/04/24 10:18:02;;;;;;;4.68;4.07;;;18.60;54.90;;;;;;5073099;28;20095;-75
2022/04/24 10:21:05;;;;;;;5.13;3.50;;;18.70;53.80;;;;;;5072918;28;20040;-75
2022/04/24 10:23:36;;;;;;;4.85;3.35;;;18.80;53.90;;;;;;5072897;28;20502;-77
2022/04/24 10:26:03;;;;;;;6.22;4.10;;;18.90;54.90;;;;;;5073196;28;20066;-76
2022/04/24 10:28:39;;;;;;;8.30;3.78;;;19.00;54.50;;;;;;5072538;28;20089;-75
2022/04/24 10:31:06;;;;;;;7.72;3.38;;;19.10;53.00;;;;;;5072849;28;20032;-75
2022/04/24 10:33:34;;;;;;;5.70;3.85;;;19.10;52.90;;;;;;5072742;28;20040;-75
2022/04/24 10:36:11;;;;;;;4.22;3.83;;;19.10;53.10;;;;;;5073018;28;20029;-75
2022/04/24 10:38:57;;;;;;;8.48;3.25;;;19.10;53.00;;;;;;5075202;28;20096;-75
2022/04/24 10:41:24;;;;;;;4.78;3.40;;;19.20;54.20;;;;;;5076736;28;20123;-75
2022/04/24 10:44:08;;;;;;;10.88;3.45;;;19.40;52.50;;;;;;5076494;28;20021;-75
2022/04/24 10:46:42;;;;;;;7.97;3.65;;;19.50;52.80;;;;;;5076642;28;20024;-75
2022/04/24 10:49:15;;;;;;;6.43;3.67;;;19.60;52.10;;;;;;5076534;28;20024;-75
2022/04/24 10:51:42;;;;;;;6.78;3.50;;;19.60;52.50;;;;;;5076773;28;20031;-76
2022/04/24 10:54:16;;;;;;;5.45;3.28;;;19.60;52.50;;;;;;5076266;28;20024;-76
2022/04/24 10:56:49;;;;;;;6.57;3.85;;;19.60;52.20;;;;;;5076675;28;20541;-75
2022/04/24 10:59:18;;;;;;;;;;;19.40;52.00;;;;;;5076988;28;20020;-76
2022/04/24 11:01:44;;;;;;;4.18;3.42;;;19.30;53.40;;;;;;5076187;28;19909;-76
2022/04/24 11:04:11;;;;;;;3.70;2.65;;;19.40;51.60;;;;;;5076369;28;20079;-76
2022/04/24 11:06:38;;;;;;;4.25;2.90;;;19.60;53.00;;;;;;5076251;28;20024;-75
2022/04/24 11:09:09;;;;;;;3.65;3.10;;;19.80;51.80;;;;;;5075893;28;20093;-75
2022/04/24 11:11:59;;;;;;;6.47;3.30;;;19.90;50.80;;;;;;5076471;28;20039;-76
2022/04/24 11:14:26;;;;;;;4.22;3.50;;;19.90;49.70;;;;;;5076010;28;20031;-75
2022/04/24 11:16:54;;;;;;;5.32;2.92;;;20.00;50.60;;;;;;5076212;28;20029;-76
2022/04/24 11:19:25;;;;;;;4.93;3.35;;;20.10;51.30;;;;;;5075676;28;20032;-76
2022/04/24 11:21:58;;;;;;;5.43;3.10;;;20.00;49.90;;;;;;5076121;28;20037;-76
2022/04/24 11:24:26;;;;;;;5.40;3.10;;;20.10;51.00;;;;;;5075846;28;20051;-76
2022/04/24 11:26:52;;;;;;;7.03;3.47;;;20.20;51.50;;;;;;5075781;28;20039;-76
2022/04/24 11:29:20;;;;;;;7.13;3.63;;;20.20;50.60;;;;;;5075748;28;20025;-76
2022/04/24 11:31:53;;;;;;;4.28;3.03;;;20.30;49.80;;;;;;5075542;28;20086;-76
2022/04/24 11:34:24;;;;;;;6.05;3.33;;;20.30;51.40;;;;;;5075895;28;20502;-76
2022/04/24 11:36:54;;;;;;;6.10;3.10;;;20.30;49.60;;;;;;5076059;28;20024;-76
2022/04/24 11:39:20;;;;;;;4.88;3.63;;;20.30;48.60;;;;;;5075472;28;20032;-76
2022/04/24 11:41:48;;;;;;;4.10;2.58;;;20.10;48.30;;;;;;5075628;28;20155;-76
2022/04/24 11:52:44;;;;;;;6.85;3.15;;;20.30;49.80;;;;;;5075434;28;20043;-76
2022/04/24 11:55:13;;;;;;;7.85;2.65;;;20.40;48.90;;;;;;5075615;28;20036;-76
2022/04/24 11:57:39;;;;;;;3.72;2.63;;;20.60;49.20;;;;;;5075573;28;20028;-76
2022/04/24 12:00:09;;;;;;;10.80;3.28;;;20.80;49.20;;;;;;5075399;28;20482;-76
2022/04/24 12:02:35;;;;;;;5.90;3.10;;;20.90;48.60;;;;;;5075090;28;20070;-76
2022/04/24 12:05:01;;;;;;;4.38;3.35;;;20.80;48.30;;;;;;5075139;28;20031;-76
2022/04/24 12:07:34;;;;;;;11.15;3.55;;;20.60;47.70;;;;;;5074913;28;20042;-76
2022/04/24 12:10:10;;;;;;;3.13;2.60;;;20.60;47.30;;;;;;5074810;28;20048;-75
2022/04/24 12:12:47;;;;;;;6.88;2.70;;;20.20;48.00;;;;;;5074817;28;20071;-76
2022/04/24 12:15:19;;;;;;;7.65;3.47;;;20.10;48.20;;;;;;5075045;28;20098;-77
2022/04/24 12:17:55;;;;;;;5.38;2.92;;;19.90;49.20;;;;;;5075133;28;20393;-78
2022/04/24 12:20:33;;;;;;;5.20;3.13;;;19.90;49.50;;;;;;5074604;28;20523;-76
2022/04/24 12:23:11;;;;;;;6.28;3.03;;;19.80;49.20;;;;;;5074615;28;20408;-76
2022/04/24 12:25:47;;;;;;;5.80;3.00;;;19.70;49.80;;;;;;5074613;28;20086;-76
2022/04/24 12:28:31;;;;;;;4.05;2.63;;;19.60;50.10;;;;;;5074399;28;20058;-76
2022/04/24 12:30:58;;;;;;;4.60;3.05;;;19.50;49.60;;;;;;5074752;28;20025;-76
2022/04/24 12:33:24;;;;;;;6.97;3.25;;;19.50;49.30;;;;;;5074113;28;20025;-76
2022/04/24 12:35:50;;;;;;;5.00;3.13;;;19.40;49.50;;;;;;5074575;28;20028;-76
2022/04/24 12:38:18;;;;;;;5.57;2.92;;;19.30;50.50;;;;;;5074348;28;20032;-76
2022/04/24 12:40:58;;;;;;;3.35;2.45;;;19.20;50.30;;;;;;5073996;28;20499;-76
2022/04/24 12:43:28;;;;;;;4.53;2.25;;;19.40;51.30;;;;;;5074334;28;20028;-76
2022/04/24 12:45:57;;;;;;;7.38;2.17;;;19.70;50.20;;;;;;5074459;28;20032;-76
2022/04/24 12:48:23;;;;;;;5.75;2.30;;;19.80;49.20;;;;;;5074105;28;20021;-76
2022/04/24 12:50:53;;;;;;;4.75;2.58;;;20.00;48.20;;;;;;5074116;28;20021;-76
2022/04/24 12:53:19;;;;;;;7.00;2.58;;;20.00;47.30;;;;;;5074034;28;20024;-76
2022/04/24 12:55:45;;;;;;;3.90;2.67;;;19.90;47.30;;;;;;5074067;28;20036;-76
2022/04/24 12:58:14;;;;;;;3.55;2.30;;;20.00;47.50;;;;;;5074156;28;20028;-76